sensor_id;sensor_type;location;lat;lon;timestamp;pressure;altitude;pressure_sealevel;temperature;humidity
61345;BME280;47216;42.656;23.232;2023-05-03T00:00:07;94131.44;;;13.81;46.77
61345;BME280;47216;42.656;23.232;2023-05-03T00:02:34;94142.41;;;13.63;46.77
61345;BME280;47216;42.656;23.232;2023-05-03T00:05:05;94145.56;;;13.60;46.60
61345;BME280;47216;42.656;23.232;2023-05-03T00:07:34;94144.00;;;13.59;46.42
61345;BME280;47216;42.656;23.232;2023-05-03T00:10:00;94145.03;;;13.58;45.99
61345;BME280;47216;42.656;23.232;2023-05-03T00:12:27;94155.44;;;13.32;46.61
61345;BME280;47216;42.656;23.232;2023-05-03T00:14:54;94143.94;;;13.38;46.53
61345;BME280;47216;42.656;23.232;2023-05-03T00:17:21;94154.66;;;13.42;46.45
61345;BME280;47216;42.656;23.232;2023-05-03T00:19:47;94152.03;;;13.37;45.98
61345;BME280;47216;42.656;23.232;2023-05-03T00:22:16;94149.75;;;13.56;46.04
61345;BME280;47216;42.656;23.232;2023-05-03T00:24:42;94157.28;;;13.42;46.42
61345;BME280;47216;42.656;23.232;2023-05-03T00:27:09;94157.28;;;13.42;45.77
61345;BME280;47216;42.656;23.232;2023-05-03T00:29:36;94160.19;;;13.45;45.30
61345;BME280;47216;42.656;23.232;2023-05-03T00:32:03;94172.81;;;13.59;45.51
61345;BME280;47216;42.656;23.232;2023-05-03T00:34:30;94170.19;;;13.59;45.78
61345;BME280;47216;42.656;23.232;2023-05-03T00:36:56;94169.66;;;13.57;45.24
61345;BME280;47216;42.656;23.232;2023-05-03T00:39:24;94162.34;;;13.74;45.17
61345;BME280;47216;42.656;23.232;2023-05-03T00:41:56;94161.28;;;13.60;45.72
61345;BME280;47216;42.656;23.232;2023-05-03T00:44:22;94165.75;;;13.70;45.40
61345;BME280;47216;42.656;23.232;2023-05-03T00:46:49;94167.06;;;13.57;45.39
61345;BME280;47216;42.656;23.232;2023-05-03T00:49:16;94169.69;;;13.62;45.23
61345;BME280;47216;42.656;23.232;2023-05-03T00:51:43;94165.75;;;13.70;45.50
61345;BME280;47216;42.656;23.232;2023-05-03T00:54:10;94167.06;;;13.67;45.47
61345;BME280;47216;42.656;23.232;2023-05-03T00:56:39;94159.22;;;13.72;44.89
61345;BME280;47216;42.656;23.232;2023-05-03T00:59:07;94161.81;;;13.57;45.03
61345;BME280;47216;42.656;23.232;2023-05-03T01:01:34;94175.97;;;13.66;45.37
61345;BME280;47216;42.656;23.232;2023-05-03T01:04:02;94162.28;;;13.43;45.26
61345;BME280;47216;42.656;23.232;2023-05-03T01:06:36;94162.53;;;13.37;45.34
61345;BME280;47216;42.656;23.232;2023-05-03T01:09:09;94151.28;;;13.41;44.96
61345;BME280;47216;42.656;23.232;2023-05-03T01:11:46;94158.00;;;13.27;44.69
61345;BME280;47216;42.656;23.232;2023-05-03T01:14:20;94153.78;;;13.21;44.80
61345;BME280;47216;42.656;23.232;2023-05-03T01:16:50;94144.78;;;12.96;45.46
61345;BME280;47216;42.656;23.232;2023-05-03T01:19:28;94141.31;;;12.86;45.55
61345;BME280;47216;42.656;23.232;2023-05-03T01:22:02;94147.56;;;12.79;45.75
61345;BME280;47216;42.656;23.232;2023-05-03T01:24:31;94142.06;;;12.76;45.35
61345;BME280;47216;42.656;23.232;2023-05-03T01:27:01;94133.47;;;12.86;45.55
61345;BME280;47216;42.656;23.232;2023-05-03T01:29:28;94135.84;;;12.87;45.58
61345;BME280;47216;42.656;23.232;2023-05-03T01:31:58;94141.09;;;12.92;45.45
61345;BME280;47216;42.656;23.232;2023-05-03T01:34:30;94133.16;;;12.77;45.94
61345;BME280;47216;42.656;23.232;2023-05-03T01:36:59;94132.16;;;12.83;45.38
61345;BME280;47216;42.656;23.232;2023-05-03T01:39:32;94127.34;;;12.65;45.65
61345;BME280;47216;42.656;23.232;2023-05-03T01:42:02;94120.47;;;12.53;46.00
61345;BME280;47216;42.656;23.232;2023-05-03T01:44:31;94126.75;;;12.52;46.03
61345;BME280;47216;42.656;23.232;2023-05-03T01:46:59;94128.47;;;12.36;46.35
61345;BME280;47216;42.656;23.232;2023-05-03T01:49:27;94127.66;;;12.36;46.34
61345;BME280;47216;42.656;23.232;2023-05-03T01:51:54;94125.66;;;12.48;46.09
61345;BME280;47216;42.656;23.232;2023-05-03T01:54:20;94110.53;;;12.55;46.13
61345;BME280;47216;42.656;23.232;2023-05-03T01:56:47;94113.13;;;12.50;46.10
61345;BME280;47216;42.656;23.232;2023-05-03T01:59:15;94109.47;;;12.51;46.31
61345;BME280;47216;42.656;23.232;2023-05-03T02:01:42;94104.22;;;12.51;46.28
61345;BME280;47216;42.656;23.232;2023-05-03T02:04:09;94100.06;;;12.55;46.18
61345;BME280;47216;42.656;23.232;2023-05-03T02:06:36;94094.97;;;12.33;46.16
61345;BME280;47216;42.656;23.232;2023-05-03T02:09:02;94091.94;;;12.52;46.06
61345;BME280;47216;42.656;23.232;2023-05-03T02:11:29;94083.88;;;12.64;45.81
61345;BME280;47216;42.656;23.232;2023-05-03T02:13:56;94086.50;;;12.64;46.08
61345;BME280;47216;42.656;23.232;2023-05-03T02:16:24;94085.47;;;12.65;45.54
61345;BME280;47216;42.656;23.232;2023-05-03T02:18:52;94085.50;;;12.75;45.44
61345;BME280;47216;42.656;23.232;2023-05-03T02:21:18;94082.34;;;12.68;45.42
61345;BME280;47216;42.656;23.232;2023-05-03T02:23:45;94079.47;;;12.69;45.86
61345;BME280;47216;42.656;23.232;2023-05-03T02:26:12;94076.59;;;12.71;46.27
61345;BME280;47216;42.656;23.232;2023-05-03T02:28:39;94086.59;;;12.79;45.57
61345;BME280;47216;42.656;23.232;2023-05-03T02:31:06;94085.06;;;12.88;46.05
61345;BME280;47216;42.656;23.232;2023-05-03T02:33:34;94081.44;;;12.94;45.96
61345;BME280;47216;42.656;23.232;2023-05-03T02:36:01;94086.16;;;12.97;46.12
61345;BME280;47216;42.656;23.232;2023-05-03T02:38:28;94087.75;;;13.03;46.82
61345;BME280;47216;42.656;23.232;2023-05-03T02:40:55;94094.56;;;13.10;47.24
61345;BME280;47216;42.656;23.232;2023-05-03T02:43:21;94111.34;;;13.14;47.90
61345;BME280;47216;42.656;23.232;2023-05-03T02:45:48;94117.63;;;13.18;48.22
61345;BME280;47216;42.656;23.232;2023-05-03T02:48:15;94111.88;;;13.21;48.28
61345;BME280;47216;42.656;23.232;2023-05-03T02:50:43;94110.88;;;13.27;47.61
61345;BME280;47216;42.656;23.232;2023-05-03T02:53:10;94092.31;;;13.29;47.31
61345;BME280;47216;42.656;23.232;2023-05-03T02:55:37;94103.28;;;13.31;47.70
61345;BME280;47216;42.656;23.232;2023-05-03T02:58:03;94103.72;;;13.12;47.68
61345;BME280;47216;42.656;23.232;2023-05-03T03:00:30;94094.56;;;13.10;48.62
61345;BME280;47216;42.656;23.232;2023-05-03T03:02:57;94104.16;;;12.89;49.46
61345;BME280;47216;42.656;23.232;2023-05-03T03:05:24;94108.56;;;12.78;50.01
61345;BME280;47216;42.656;23.232;2023-05-03T03:07:52;94111.91;;;12.68;50.50
61345;BME280;47216;42.656;23.232;2023-05-03T03:10:19;94118.47;;;12.71;49.58
61345;BME280;47216;42.656;23.232;2023-05-03T03:12:46;94114.50;;;12.63;50.04
61345;BME280;47216;42.656;23.232;2023-05-03T03:15:12;94110.53;;;12.55;50.70
61345;BME280;47216;42.656;23.232;2023-05-03T03:17:39;94106.25;;;12.39;51.09
61345;BME280;47216;42.656;23.232;2023-05-03T03:20:08;94122.19;;;12.37;51.32
61345;BME280;47216;42.656;23.232;2023-05-03T03:22:36;94129.25;;;12.37;51.48
61345;BME280;47216;42.656;23.232;2023-05-03T03:25:05;94124.03;;;12.37;51.68
61345;BME280;47216;42.656;23.232;2023-05-03T03:27:32;94122.94;;;12.33;51.99
61345;BME280;47216;42.656;23.232;2023-05-03T03:29:59;94128.19;;;12.38;52.36
61345;BME280;47216;42.656;23.232;2023-05-03T03:32:26;94130.91;;;12.48;52.21
61345;BME280;47216;42.656;23.232;2023-05-03T03:34:52;94141.34;;;12.48;52.31
61345;BME280;47216;42.656;23.232;2023-05-03T03:37:19;94138.47;;;12.50;52.38
61345;BME280;47216;42.656;23.232;2023-05-03T03:39:47;94155.75;;;12.51;52.37
61345;BME280;47216;42.656;23.232;2023-05-03T03:42:15;94161.44;;;12.43;53.23
61345;BME280;47216;42.656;23.232;2023-05-03T03:44:42;94153.91;;;12.46;53.26
61345;BME280;47216;42.656;23.232;2023-05-03T03:47:09;94145.75;;;12.43;52.80
61345;BME280;47216;42.656;23.232;2023-05-03T03:49:36;94137.34;;;12.35;52.97
61345;BME280;47216;42.656;23.232;2023-05-03T03:52:03;94142.88;;;12.39;53.37
61345;BME280;47216;42.656;23.232;2023-05-03T03:54:30;94149.94;;;12.38;53.73
61345;BME280;47216;42.656;23.232;2023-05-03T03:56:59;94156.91;;;12.28;53.68
61345;BME280;47216;42.656;23.232;2023-05-03T03:59:28;94162.63;;;12.25;54.09
61345;BME280;47216;42.656;23.232;2023-05-03T04:01:55;94159.19;;;12.19;54.21
61345;BME280;47216;42.656;23.232;2023-05-03T04:04:22;94162.31;;;12.16;53.50
61345;BME280;47216;42.656;23.232;2023-05-03T04:06:49;94158.63;;;12.17;54.01
61345;BME280;47216;42.656;23.232;2023-05-03T04:09:16;94168.84;;;12.18;53.73
61345;BME280;47216;42.656;23.232;2023-05-03T04:11:43;94157.88;;;12.22;53.37
61345;BME280;47216;42.656;23.232;2023-05-03T04:14:10;94157.91;;;12.27;53.41
61345;BME280;47216;42.656;23.232;2023-05-03T04:16:38;94153.75;;;12.26;53.99
61345;BME280;47216;42.656;23.232;2023-05-03T04:19:05;94163.16;;;12.27;54.09
61345;BME280;47216;42.656;23.232;2023-05-03T04:21:32;94171.09;;;12.37;54.04
61345;BME280;47216;42.656;23.232;2023-05-03T04:23:59;94173.75;;;12.42;54.48
61345;BME280;47216;42.656;23.232;2023-05-03T04:26:30;94182.13;;;12.44;54.42
61345;BME280;47216;42.656;23.232;2023-05-03T04:28:57;94189.19;;;12.44;54.61
61345;BME280;47216;42.656;23.232;2023-05-03T04:31:24;94199.09;;;12.42;54.92
61345;BME280;47216;42.656;23.232;2023-05-03T04:33:52;94200.41;;;12.39;55.11
61345;BME280;47216;42.656;23.232;2023-05-03T04:36:19;94206.91;;;12.36;53.29
61345;BME280;47216;42.656;23.232;2023-05-03T04:38:50;94209.81;;;12.40;52.97
61345;BME280;47216;42.656;23.232;2023-05-03T04:41:17;94206.72;;;12.43;54.43
61345;BME280;47216;42.656;23.232;2023-05-03T04:43:43;94210.28;;;12.32;53.09
61345;BME280;47216;42.656;23.232;2023-05-03T04:46:10;94212.81;;;12.27;54.30
61345;BME280;47216;42.656;23.232;2023-05-03T04:48:37;94221.53;;;12.32;55.59
61345;BME280;47216;42.656;23.232;2023-05-03T04:51:05;94223.97;;;12.44;56.01
61345;BME280;47216;42.656;23.232;2023-05-03T04:53:32;94222.91;;;12.45;55.95
61345;BME280;47216;42.656;23.232;2023-05-03T04:55:59;94217.22;;;12.48;55.14
61345;BME280;47216;42.656;23.232;2023-05-03T04:58:25;94220.59;;;12.49;55.90
61345;BME280;47216;42.656;23.232;2023-05-03T05:00:52;94220.09;;;12.52;55.92
61345;BME280;47216;42.656;23.232;2023-05-03T05:03:20;94229.78;;;12.51;56.40
61345;BME280;47216;42.656;23.232;2023-05-03T05:05:46;94229.28;;;12.54;56.81
61345;BME280;47216;42.656;23.232;2023-05-03T05:08:14;94223.78;;;12.51;56.68
61345;BME280;47216;42.656;23.232;2023-05-03T05:10:42;94230.34;;;12.58;57.31
61345;BME280;47216;42.656;23.232;2023-05-03T05:13:09;94230.34;;;12.58;55.89
61345;BME280;47216;42.656;23.232;2023-05-03T05:15:36;94232.00;;;12.70;55.25
61345;BME280;47216;42.656;23.232;2023-05-03T05:18:02;94239.31;;;12.68;56.28
61345;BME280;47216;42.656;23.232;2023-05-03T05:20:29;94237.78;;;12.72;57.29
61345;BME280;47216;42.656;23.232;2023-05-03T05:22:56;94233.63;;;12.76;57.49
61345;BME280;47216;42.656;23.232;2023-05-03T05:25:25;94246.25;;;12.84;58.42
61345;BME280;47216;42.656;23.232;2023-05-03T05:27:52;94243.41;;;12.91;58.56
61345;BME280;47216;42.656;23.232;2023-05-03T05:30:18;94250.50;;;12.95;59.21
61345;BME280;47216;42.656;23.232;2023-05-03T05:32:45;94251.06;;;12.97;58.92
61345;BME280;47216;42.656;23.232;2023-05-03T05:35:12;94251.56;;;12.94;60.49
61345;BME280;47216;42.656;23.232;2023-05-03T05:37:42;94250.94;;;12.82;61.36
61345;BME280;47216;42.656;23.232;2023-05-03T05:40:10;94257.72;;;12.78;62.06
61345;BME280;47216;42.656;23.232;2023-05-03T05:42:38;94270.50;;;12.74;62.14
61345;BME280;47216;42.656;23.232;2023-05-03T05:45:06;94271.28;;;12.75;62.68
61345;BME280;47216;42.656;23.232;2023-05-03T05:47:33;94266.84;;;12.75;63.93
61345;BME280;47216;42.656;23.232;2023-05-03T05:50:00;94255.00;;;12.63;64.56
61345;BME280;47216;42.656;23.232;2023-05-03T05:52:28;94266.03;;;12.70;64.34
61345;BME280;47216;42.656;23.232;2023-05-03T05:54:54;94263.41;;;12.70;63.95
61345;BME280;47216;42.656;23.232;2023-05-03T05:57:21;94264.97;;;12.71;63.77
61345;BME280;47216;42.656;23.232;2023-05-03T05:59:50;94264.00;;;12.77;64.46
61345;BME280;47216;42.656;23.232;2023-05-03T06:02:17;94265.34;;;12.85;64.24
61345;BME280;47216;42.656;23.232;2023-05-03T06:04:47;94260.97;;;12.95;63.60
61345;BME280;47216;42.656;23.232;2023-05-03T06:07:14;94266.53;;;13.04;62.93
61345;BME280;47216;42.656;23.232;2023-05-03T06:09:41;94255.84;;;13.06;63.99
61345;BME280;47216;42.656;23.232;2023-05-03T06:12:08;94263.69;;;13.06;63.83
61345;BME280;47216;42.656;23.232;2023-05-03T06:14:35;94259.97;;;13.01;64.87
61345;BME280;47216;42.656;23.232;2023-05-03T06:17:04;94255.78;;;13.00;65.51
61345;BME280;47216;42.656;23.232;2023-05-03T06:19:31;94252.66;;;13.03;65.66
61345;BME280;47216;42.656;23.232;2023-05-03T06:21:57;94257.63;;;13.05;66.03
61345;BME280;47216;42.656;23.232;2023-05-03T06:24:24;94248.25;;;13.09;65.56
61345;BME280;47216;42.656;23.232;2023-05-03T06:26:55;94248.00;;;13.11;65.03
61345;BME280;47216;42.656;23.232;2023-05-03T06:29:23;94253.25;;;13.11;64.03
61345;BME280;47216;42.656;23.232;2023-05-03T06:31:49;94234.38;;;12.71;57.76
61345;BME280;47216;42.656;23.232;2023-05-03T06:34:18;94242.28;;;12.76;57.56
61345;BME280;47216;42.656;23.232;2023-05-03T06:36:46;94234.22;;;12.83;57.55
61345;BME280;47216;42.656;23.232;2023-05-03T06:39:13;94233.66;;;12.81;57.79
61345;BME280;47216;42.656;23.232;2023-05-03T06:41:39;94233.69;;;12.86;57.17
61345;BME280;47216;42.656;23.232;2023-05-03T06:44:06;94230.28;;;12.80;57.21
61345;BME280;47216;42.656;23.232;2023-05-03T06:46:33;94225.81;;;12.81;56.16
61345;BME280;47216;42.656;23.232;2023-05-03T06:49:00;94218.47;;;12.78;56.58
61345;BME280;47216;42.656;23.232;2023-05-03T06:51:29;94224.31;;;12.90;56.60
61345;BME280;47216;42.656;23.232;2023-05-03T06:53:58;94218.25;;;12.85;56.07
61345;BME280;47216;42.656;23.232;2023-05-03T06:56:26;94223.19;;;12.81;56.20
61345;BME280;47216;42.656;23.232;2023-05-03T06:58:53;94217.41;;;12.74;56.46
61345;BME280;47216;42.656;23.232;2023-05-03T07:01:20;94209.84;;;12.45;56.28
61345;BME280;47216;42.656;23.232;2023-05-03T07:03:47;94207.00;;;12.47;55.59
61345;BME280;47216;42.656;23.232;2023-05-03T07:06:14;94214.09;;;12.51;56.06
61345;BME280;47216;42.656;23.232;2023-05-03T07:08:44;94225.53;;;12.45;55.64
61345;BME280;47216;42.656;23.232;2023-05-03T07:11:11;94217.19;;;12.43;54.80
61345;BME280;47216;42.656;23.232;2023-05-03T07:13:37;94216.78;;;12.29;55.63
61345;BME280;47216;42.656;23.232;2023-05-03T07:16:05;94216.41;;;12.15;56.08
61345;BME280;47216;42.656;23.232;2023-05-03T07:18:32;94227.53;;;12.33;56.15
61345;BME280;47216;42.656;23.232;2023-05-03T07:20:58;94231.75;;;11.85;55.93
61345;BME280;47216;42.656;23.232;2023-05-03T07:23:30;94232.69;;;11.95;56.86
61345;BME280;47216;42.656;23.232;2023-05-03T07:25:58;94242.41;;;12.00;55.90
61345;BME280;47216;42.656;23.232;2023-05-03T07:28:26;94243.06;;;12.17;55.90
61345;BME280;47216;42.656;23.232;2023-05-03T07:30:53;94242.25;;;12.39;56.05
61345;BME280;47216;42.656;23.232;2023-05-03T07:33:20;94242.25;;;12.39;55.40
61345;BME280;47216;42.656;23.232;2023-05-03T07:35:47;94232.75;;;12.33;56.04
61345;BME280;47216;42.656;23.232;2023-05-03T07:38:15;94232.34;;;12.46;56.35
61345;BME280;47216;42.656;23.232;2023-05-03T07:40:42;94239.34;;;12.40;55.26
61345;BME280;47216;42.656;23.232;2023-05-03T07:43:11;94236.44;;;12.64;55.25
61345;BME280;47216;42.656;23.232;2023-05-03T07:45:38;94237.56;;;12.73;54.90
61345;BME280;47216;42.656;23.232;2023-05-03T07:48:05;94231.31;;;12.85;54.88
61345;BME280;47216;42.656;23.232;2023-05-03T07:50:32;94234.25;;;12.93;55.18
61345;BME280;47216;42.656;23.232;2023-05-03T07:52:59;94244.41;;;12.85;54.83
61345;BME280;47216;42.656;23.232;2023-05-03T07:55:26;94240.03;;;12.95;55.01
61345;BME280;47216;42.656;23.232;2023-05-03T07:57:54;94233.53;;;13.03;54.73
61345;BME280;47216;42.656;23.232;2023-05-03T08:00:25;94232.19;;;12.95;55.14
61345;BME280;47216;42.656;23.232;2023-05-03T08:02:52;94234.66;;;12.75;55.36
61345;BME280;47216;42.656;23.232;2023-05-03T08:05:20;94250.38;;;12.75;55.08
61345;BME280;47216;42.656;23.232;2023-05-03T08:07:47;94248.78;;;12.74;54.96
61345;BME280;47216;42.656;23.232;2023-05-03T08:10:14;94246.72;;;12.76;55.38
61345;BME280;47216;42.656;23.232;2023-05-03T08:12:42;94255.00;;;12.63;55.37
61345;BME280;47216;42.656;23.232;2023-05-03T08:15:10;94253.41;;;12.61;56.07
61345;BME280;47216;42.656;23.232;2023-05-03T08:17:42;94257.25;;;12.86;55.79
61345;BME280;47216;42.656;23.232;2023-05-03T08:20:10;94253.72;;;13.08;55.79
61345;BME280;47216;42.656;23.232;2023-05-03T08:22:38;94238.47;;;13.32;55.13
61345;BME280;47216;42.656;23.232;2023-05-03T08:25:06;94251.34;;;13.43;54.42
61345;BME280;47216;42.656;23.232;2023-05-03T08:27:34;94249.59;;;13.17;55.23
61345;BME280;47216;42.656;23.232;2023-05-03T08:30:01;94244.47;;;13.32;55.70
61345;BME280;47216;42.656;23.232;2023-05-03T08:32:29;94236.19;;;13.56;54.91
61345;BME280;47216;42.656;23.232;2023-05-03T08:34:57;94238.81;;;13.51;54.61
61345;BME280;47216;42.656;23.232;2023-05-03T08:37:24;94249.41;;;13.81;54.80
61345;BME280;47216;42.656;23.232;2023-05-03T08:39:51;94250.72;;;13.84;54.54
61345;BME280;47216;42.656;23.232;2023-05-03T08:42:18;94241.34;;;14.03;53.68
61345;BME280;47216;42.656;23.232;2023-05-03T08:44:46;94243.75;;;14.31;53.80
61345;BME280;47216;42.656;23.232;2023-05-03T08:47:14;94238.53;;;14.36;53.22
61345;BME280;47216;42.656;23.232;2023-05-03T08:49:42;94245.34;;;14.52;53.78
61345;BME280;47216;42.656;23.232;2023-05-03T08:52:11;94248.00;;;14.57;53.33
61345;BME280;47216;42.656;23.232;2023-05-03T08:54:40;94244.34;;;14.68;53.29
61345;BME280;47216;42.656;23.232;2023-05-03T08:57:09;94248.53;;;14.54;52.53
61345;BME280;47216;42.656;23.232;2023-05-03T08:59:46;94244.03;;;14.44;52.67
61345;BME280;47216;42.656;23.232;2023-05-03T09:02:13;94245.84;;;14.44;52.86
61345;BME280;47216;42.656;23.232;2023-05-03T09:04:41;94262.47;;;14.65;53.09
61345;BME280;47216;42.656;23.232;2023-05-03T09:07:09;94258.50;;;14.57;51.92
61345;BME280;47216;42.656;23.232;2023-05-03T09:09:37;94253.78;;;14.64;52.75
61345;BME280;47216;42.656;23.232;2023-05-03T09:12:04;94246.44;;;14.87;52.28
61345;BME280;47216;42.656;23.232;2023-05-03T09:14:41;94239.06;;;15.09;52.46
61345;BME280;47216;42.656;23.232;2023-05-03T09:17:15;94237.72;;;15.27;52.80
61345;BME280;47216;42.656;23.232;2023-05-03T09:19:49;94233.75;;;15.25;51.56
61345;BME280;47216;42.656;23.232;2023-05-03T09:22:18;94231.66;;;15.32;52.16
61345;BME280;47216;42.656;23.232;2023-05-03T09:24:51;94223.81;;;15.11;51.87
61345;BME280;47216;42.656;23.232;2023-05-03T09:27:19;94219.56;;;15.31;51.36
61345;BME280;47216;42.656;23.232;2023-05-03T09:29:47;94220.09;;;15.28;51.33
61345;BME280;47216;42.656;23.232;2023-05-03T09:32:15;94213.25;;;15.27;53.01
61345;BME280;47216;42.656;23.232;2023-05-03T09:34:44;94207.47;;;15.35;51.57
61345;BME280;47216;42.656;23.232;2023-05-03T09:37:11;94205.06;;;15.39;51.54
61345;BME280;47216;42.656;23.232;2023-05-03T09:39:41;94201.66;;;15.48;51.41
61345;BME280;47216;42.656;23.232;2023-05-03T09:42:14;94202.13;;;15.61;51.02
61345;BME280;47216;42.656;23.232;2023-05-03T09:44:48;94201.00;;;15.77;51.33
61345;BME280;47216;42.656;23.232;2023-05-03T09:47:16;94198.94;;;15.74;50.95
61345;BME280;47216;42.656;23.232;2023-05-03T09:49:44;94190.03;;;15.60;51.40
61345;BME280;47216;42.656;23.232;2023-05-03T09:52:11;94207.56;;;15.80;51.51
61345;BME280;47216;42.656;23.232;2023-05-03T09:54:38;94197.78;;;15.90;50.70
61345;BME280;47216;42.656;23.232;2023-05-03T09:57:07;94194.63;;;15.93;51.11
61345;BME280;47216;42.656;23.232;2023-05-03T09:59:35;94197.69;;;16.11;50.70
61345;BME280;47216;42.656;23.232;2023-05-03T10:02:04;94199.38;;;16.31;50.91
61345;BME280;47216;42.656;23.232;2023-05-03T10:04:40;94194.31;;;16.39;51.43
61345;BME280;47216;42.656;23.232;2023-05-03T10:07:11;94188.16;;;16.54;49.56
61345;BME280;47216;42.656;23.232;2023-05-03T10:09:42;94182.66;;;16.51;49.88
61345;BME280;47216;42.656;23.232;2023-05-03T10:12:12;94189.41;;;16.62;50.58
61345;BME280;47216;42.656;23.232;2023-05-03T10:14:42;94191.44;;;16.70;49.98
61345;BME280;47216;42.656;23.232;2023-05-03T10:17:15;94177.13;;;16.82;50.19
61345;BME280;47216;42.656;23.232;2023-05-03T10:19:48;94165.06;;;16.80;49.10
61345;BME280;47216;42.656;23.232;2023-05-03T10:22:16;94163.47;;;16.79;48.70
61345;BME280;47216;42.656;23.232;2023-05-03T10:25:06;94156.44;;;16.99;49.07
61345;BME280;47216;42.656;23.232;2023-05-03T10:27:40;94133.44;;;16.80;49.13
61345;BME280;47216;42.656;23.232;2023-05-03T10:30:08;94145.22;;;16.88;49.13
61345;BME280;47216;42.656;23.232;2023-05-03T10:32:53;94140.78;;;16.84;48.92
61345;BME280;47216;42.656;23.232;2023-05-03T10:35:20;94135.19;;;16.90;49.22
61345;BME280;47216;42.656;23.232;2023-05-03T10:37:47;94135.81;;;17.06;49.49
61345;BME280;47216;42.656;23.232;2023-05-03T10:40:16;94138.22;;;17.27;49.26
61345;BME280;47216;42.656;23.232;2023-05-03T10:42:48;94137.56;;;17.35;48.97
61345;BME280;47216;42.656;23.232;2023-05-03T10:45:22;94134.91;;;17.40;48.65
61345;BME280;47216;42.656;23.232;2023-05-03T10:48:14;94139.25;;;17.50;49.40
61345;BME280;47216;42.656;23.232;2023-05-03T10:50:45;94131.75;;;17.38;48.56
61345;BME280;47216;42.656;23.232;2023-05-03T10:53:35;94136.69;;;17.45;47.97
61345;BME280;47216;42.656;23.232;2023-05-03T10:56:03;94131.81;;;17.33;47.88
61345;BME280;47216;42.656;23.232;2023-05-03T10:58:36;94137.47;;;17.21;48.85
61345;BME280;47216;42.656;23.232;2023-05-03T11:01:03;94133.78;;;17.22;48.85
61345;BME280;47216;42.656;23.232;2023-05-03T11:03:42;94134.53;;;17.04;49.32
61345;BME280;47216;42.656;23.232;2023-05-03T11:06:26;94138.38;;;17.11;49.20
61345;BME280;47216;42.656;23.232;2023-05-03T11:08:52;94124.81;;;16.99;49.47
61345;BME280;47216;42.656;23.232;2023-05-03T11:11:20;94136.03;;;17.10;49.30
61345;BME280;47216;42.656;23.232;2023-05-03T11:13:49;94128.50;;;16.98;49.24
61345;BME280;47216;42.656;23.232;2023-05-03T11:16:16;94126.59;;;16.79;49.58
61345;BME280;47216;42.656;23.232;2023-05-03T11:18:43;94125.66;;;16.65;49.50
61345;BME280;47216;42.656;23.232;2023-05-03T11:21:10;94130.38;;;16.68;49.44
61345;BME280;47216;42.656;23.232;2023-05-03T11:23:38;94122.75;;;16.67;49.16
61345;BME280;47216;42.656;23.232;2023-05-03T11:26:06;94126.06;;;16.83;49.34
61345;BME280;47216;42.656;23.232;2023-05-03T11:28:34;94121.28;;;16.85;48.99
61345;BME280;47216;42.656;23.232;2023-05-03T11:31:02;94107.88;;;16.81;49.13
61345;BME280;47216;42.656;23.232;2023-05-03T11:33:31;94105.03;;;17.01;49.52
61345;BME280;47216;42.656;23.232;2023-05-03T11:36:00;94093.09;;;17.09;49.20
61345;BME280;47216;42.656;23.232;2023-05-03T11:38:29;94099.94;;;17.10;49.35
61345;BME280;47216;42.656;23.232;2023-05-03T11:40:56;94106.19;;;17.14;49.30
61345;BME280;47216;42.656;23.232;2023-05-03T11:43:23;94108.66;;;17.30;49.13
61345;BME280;47216;42.656;23.232;2023-05-03T11:45:53;94095.63;;;17.38;48.95
61345;BME280;47216;42.656;23.232;2023-05-03T11:48:23;94085.44;;;17.32;49.03
61345;BME280;47216;42.656;23.232;2023-05-03T11:50:53;94064.28;;;17.56;48.57
61345;BME280;47216;42.656;23.232;2023-05-03T11:53:21;94081.63;;;17.81;48.27
61345;BME280;47216;42.656;23.232;2023-05-03T11:55:49;94077.94;;;17.82;48.86
61345;BME280;47216;42.656;23.232;2023-05-03T11:58:20;94082.44;;;17.81;48.29
61345;BME280;47216;42.656;23.232;2023-05-03T12:00:49;94072.66;;;17.82;48.21
61345;BME280;47216;42.656;23.232;2023-05-03T12:03:17;94054.78;;;17.74;48.28
61345;BME280;47216;42.656;23.232;2023-05-03T12:05:47;94043.25;;;17.70;48.33
61345;BME280;47216;42.656;23.232;2023-05-03T12:08:14;94047.69;;;17.93;48.29
61345;BME280;47216;42.656;23.232;2023-05-03T12:10:43;94055.34;;;18.09;48.09
61345;BME280;47216;42.656;23.232;2023-05-03T12:13:10;94059.38;;;18.20;48.12
61345;BME280;47216;42.656;23.232;2023-05-03T12:15:38;94038.56;;;18.32;48.27
61345;BME280;47216;42.656;23.232;2023-05-03T12:18:09;94034.88;;;18.33;48.32
61345;BME280;47216;42.656;23.232;2023-05-03T12:20:37;94042.91;;;18.28;48.46
61345;BME280;47216;42.656;23.232;2023-05-03T12:23:07;94040.19;;;18.00;49.29
61345;BME280;47216;42.656;23.232;2023-05-03T12:25:34;94040.50;;;18.13;49.14
61345;BME280;47216;42.656;23.232;2023-05-03T12:28:03;94037.03;;;17.98;49.15
61345;BME280;47216;42.656;23.232;2023-05-03T12:30:31;94028.00;;;17.67;49.61
61345;BME280;47216;42.656;23.232;2023-05-03T12:32:59;94032.28;;;17.62;48.93
61345;BME280;47216;42.656;23.232;2023-05-03T12:35:26;94034.56;;;17.31;49.62
61345;BME280;47216;42.656;23.232;2023-05-03T12:37:53;94036.22;;;17.27;50.25
61345;BME280;47216;42.656;23.232;2023-05-03T12:40:21;94037.47;;;17.11;50.25
61345;BME280;47216;42.656;23.232;2023-05-03T12:42:52;94030.59;;;16.91;50.37
61345;BME280;47216;42.656;23.232;2023-05-03T12:45:20;94041.03;;;17.01;50.47
61345;BME280;47216;42.656;23.232;2023-05-03T12:47:47;94033.50;;;16.65;51.03
61345;BME280;47216;42.656;23.232;2023-05-03T12:50:14;94025.53;;;16.46;51.43
61345;BME280;47216;42.656;23.232;2023-05-03T12:52:41;94026.63;;;16.45;51.31
61345;BME280;47216;42.656;23.232;2023-05-03T12:55:08;94036.53;;;16.24;52.08